sensor_id;sensor_type;location;lat;lon;timestamp;temperature;humidity
17849;DHT22;9050;48.746;9.232;2022-07-10T00:02:26;16.00;99.90
17849;DHT22;9050;48.746;9.232;2022-07-10T00:04:53;16.10;99.90
17849;DHT22;9050;48.746;9.232;2022-07-10T00:07:20;16.10;99.90
17849;DHT22;9050;48.746;9.232;2022-07-10T00:09:47;16.10;99.90
17849;DHT22;9050;48.746;9.232;2022-07-10T00:12:15;16.10;99.90
17849;DHT22;9050;48.746;9.232;2022-07-10T00:14:42;16.20;99.90
17849;DHT22;9050;48.746;9.232;2022-07-10T00:17:09;16.10;99.90
17849;DHT22;9050;48.746;9.232;2022-07-10T00:19:35;16.10;99.90
17849;DHT22;9050;48.746;9.232;2022-07-10T00:22:03;16.20;99.90
17849;DHT22;9050;48.746;9.232;2022-07-10T00:24:30;16.20;99.90
17849;DHT22;9050;48.746;9.232;2022-07-10T00:26:57;16.20;99.90
17849;DHT22;9050;48.746;9.232;2022-07-10T00:29:25;16.20;99.90
17849;DHT22;9050;48.746;9.232;2022-07-10T00:31:52;16.20;99.90
17849;DHT22;9050;48.746;9.232;2022-07-10T00:34:19;16.20;99.90
17849;DHT22;9050;48.746;9.232;2022-07-10T00:36:46;16.30;99.90
17849;DHT22;9050;48.746;9.232;2022-07-10T00:39:13;16.30;99.90
17849;DHT22;9050;48.746;9.232;2022-07-10T00:41:40;16.30;99.90
17849;DHT22;9050;48.746;9.232;2022-07-10T00:44:06;16.30;99.90
17849;DHT22;9050;48.746;9.232;2022-07-10T00:46:35;16.30;99.90
17849;DHT22;9050;48.746;9.232;2022-07-10T00:49:02;16.30;99.90
17849;DHT22;9050;48.746;9.232;2022-07-10T00:51:30;16.30;99.90
17849;DHT22;9050;48.746;9.232;2022-07-10T00:53:59;16.30;99.90
17849;DHT22;9050;48.746;9.232;2022-07-10T00:56:27;16.30;99.90
17849;DHT22;9050;48.746;9.232;2022-07-10T00:58:55;16.30;99.90
17849;DHT22;9050;48.746;9.232;2022-07-10T01:01:22;16.30;99.90
17849;DHT22;9050;48.746;9.232;2022-07-10T01:03:51;16.30;99.90
17849;DHT22;9050;48.746;9.232;2022-07-10T01:06:18;16.30;99.90
17849;DHT22;9050;48.746;9.232;2022-07-10T01:08:45;16.10;99.90
17849;DHT22;9050;48.746;9.232;2022-07-10T01:11:13;16.10;99.90
17849;DHT22;9050;48.746;9.232;2022-07-10T01:13:42;16.10;99.90
17849;DHT22;9050;48.746;9.232;2022-07-10T01:16:09;15.90;99.90
17849;DHT22;9050;48.746;9.232;2022-07-10T01:18:36;15.90;99.90
17849;DHT22;9050;48.746;9.232;2022-07-10T01:21:05;15.80;99.90
17849;DHT22;9050;48.746;9.232;2022-07-10T01:23:32;15.70;99.90
17849;DHT22;9050;48.746;9.232;2022-07-10T01:25:59;15.60;99.90
17849;DHT22;9050;48.746;9.232;2022-07-10T01:28:29;15.50;99.90
17849;DHT22;9050;48.746;9.232;2022-07-10T01:30:56;15.40;99.90
17849;DHT22;9050;48.746;9.232;2022-07-10T01:33:23;15.40;99.90
17849;DHT22;9050;48.746;9.232;2022-07-10T01:35:50;15.40;99.90
17849;DHT22;9050;48.746;9.232;2022-07-10T01:38:19;15.40;99.90
17849;DHT22;9050;48.746;9.232;2022-07-10T01:40:45;15.40;99.90
17849;DHT22;9050;48.746;9.232;2022-07-10T01:43:13;15.30;99.90
17849;DHT22;9050;48.746;9.232;2022-07-10T01:45:39;15.30;99.90
17849;DHT22;9050;48.746;9.232;2022-07-10T01:48:06;15.30;99.90
17849;DHT22;9050;48.746;9.232;2022-07-10T01:50:33;15.30;99.90
17849;DHT22;9050;48.746;9.232;2022-07-10T01:53:00;15.30;99.90
17849;DHT22;9050;48.746;9.232;2022-07-10T01:55:28;15.20;99.90
17849;DHT22;9050;48.746;9.232;2022-07-10T01:57:55;15.20;99.90
17849;DHT22;9050;48.746;9.232;2022-07-10T02:00:22;15.10;99.90
17849;DHT22;9050;48.746;9.232;2022-07-10T02:02:49;15.10;99.90
17849;DHT22;9050;48.746;9.232;2022-07-10T02:05:30;15.10;99.90
17849;DHT22;9050;48.746;9.232;2022-07-10T02:07:57;15.10;99.90
17849;DHT22;9050;48.746;9.232;2022-07-10T02:10:25;15.10;99.90
17849;DHT22;9050;48.746;9.232;2022-07-10T02:12:53;15.10;99.90
17849;DHT22;9050;48.746;9.232;2022-07-10T02:15:20;15.10;99.90
17849;DHT22;9050;48.746;9.232;2022-07-10T02:17:46;15.10;99.90
17849;DHT22;9050;48.746;9.232;2022-07-10T02:20:13;15.10;99.90
17849;DHT22;9050;48.746;9.232;2022-07-10T02:22:41;15.10;99.90
17849;DHT22;9050;48.746;9.232;2022-07-10T02:25:08;15.00;99.90
17849;DHT22;9050;48.746;9.232;2022-07-10T02:27:35;15.00;99.90
17849;DHT22;9050;48.746;9.232;2022-07-10T02:30:05;15.00;99.90
17849;DHT22;9050;48.746;9.232;2022-07-10T02:32:32;15.00;99.90
17849;DHT22;9050;48.746;9.232;2022-07-10T02:34:59;15.10;99.90
17849;DHT22;9050;48.746;9.232;2022-07-10T02:37:25;15.00;99.90
17849;DHT22;9050;48.746;9.232;2022-07-10T02:39:52;15.00;99.90
17849;DHT22;9050;48.746;9.232;2022-07-10T02:42:19;15.10;99.90
17849;DHT22;9050;48.746;9.232;2022-07-10T02:44:46;15.10;99.90
17849;DHT22;9050;48.746;9.232;2022-07-10T02:47:14;15.10;99.90
17849;DHT22;9050;48.746;9.232;2022-07-10T02:49:41;15.00;99.90
17849;DHT22;9050;48.746;9.232;2022-07-10T02:52:08;15.10;99.90
17849;DHT22;9050;48.746;9.232;2022-07-10T02:54:35;15.10;99.90
17849;DHT22;9050;48.746;9.232;2022-07-10T02:57:03;15.20;99.90
17849;DHT22;9050;48.746;9.232;2022-07-10T02:59:30;15.20;99.90
17849;DHT22;9050;48.746;9.232;2022-07-10T03:01:56;15.20;99.90
17849;DHT22;9050;48.746;9.232;2022-07-10T03:04:25;15.20;99.90
17849;DHT22;9050;48.746;9.232;2022-07-10T03:06:51;15.20;99.90
17849;DHT22;9050;48.746;9.232;2022-07-10T03:09:18;15.20;99.90
17849;DHT22;9050;48.746;9.232;2022-07-10T03:11:45;15.10;99.90
17849;DHT22;9050;48.746;9.232;2022-07-10T03:14:12;15.10;99.90
17849;DHT22;9050;48.746;9.232;2022-07-10T03:16:39;15.20;99.90
17849;DHT22;9050;48.746;9.232;2022-07-10T03:19:06;15.30;99.90
17849;DHT22;9050;48.746;9.232;2022-07-10T03:21:35;15.30;99.90
17849;DHT22;9050;48.746;9.232;2022-07-10T03:24:02;15.20;99.90
17849;DHT22;9050;48.746;9.232;2022-07-10T03:26:29;15.40;99.90
17849;DHT22;9050;48.746;9.232;2022-07-10T03:28:56;15.30;99.90
17849;DHT22;9050;48.746;9.232;2022-07-10T03:31:23;15.30;99.90
17849;DHT22;9050;48.746;9.232;2022-07-10T03:33:49;15.30;99.90
17849;DHT22;9050;48.746;9.232;2022-07-10T03:36:18;15.20;99.90
17849;DHT22;9050;48.746;9.232;2022-07-10T03:38:46;15.20;99.90
17849;DHT22;9050;48.746;9.232;2022-07-10T03:41:13;15.20;99.90
17849;DHT22;9050;48.746;9.232;2022-07-10T03:43:40;15.20;99.90
17849;DHT22;9050;48.746;9.232;2022-07-10T03:46:07;15.20;99.90
17849;DHT22;9050;48.746;9.232;2022-07-10T03:48:34;15.20;99.90
17849;DHT22;9050;48.746;9.232;2022-07-10T03:51:00;15.20;99.90
17849;DHT22;9050;48.746;9.232;2022-07-10T03:53:27;15.10;99.90
17849;DHT22;9050;48.746;9.232;2022-07-10T03:55:56;15.10;99.90
17849;DHT22;9050;48.746;9.232;2022-07-10T03:58:22;15.10;99.90
17849;DHT22;9050;48.746;9.232;2022-07-10T04:00:48;15.00;99.90
17849;DHT22;9050;48.746;9.232;2022-07-10T04:03:15;14.90;99.90
17849;DHT22;9050;48.746;9.232;2022-07-10T04:05:42;14.80;99.90
17849;DHT22;9050;48.746;9.232;2022-07-10T04:08:09;14.90;99.90
17849;DHT22;9050;48.746;9.232;2022-07-10T04:10:36;14.90;99.90
17849;DHT22;9050;48.746;9.232;2022-07-10T04:13:04;14.90;99.90
17849;DHT22;9050;48.746;9.232;2022-07-10T04:15:31;15.00;99.90
17849;DHT22;9050;48.746;9.232;2022-07-10T04:17:58;15.00;99.90
17849;DHT22;9050;48.746;9.232;2022-07-10T04:20:25;15.00;99.90
17849;DHT22;9050;48.746;9.232;2022-07-10T04:22:52;14.90;99.90
17849;DHT22;9050;48.746;9.232;2022-07-10T04:25:19;15.00;99.90
17849;DHT22;9050;48.746;9.232;2022-07-10T04:27:46;15.00;99.90
17849;DHT22;9050;48.746;9.232;2022-07-10T04:30:14;15.00;99.90
17849;DHT22;9050;48.746;9.232;2022-07-10T04:32:41;15.00;99.90
17849;DHT22;9050;48.746;9.232;2022-07-10T04:35:08;15.00;99.90
17849;DHT22;9050;48.746;9.232;2022-07-10T04:37:35;15.10;99.90
17849;DHT22;9050;48.746;9.232;2022-07-10T04:40:03;15.00;99.90
17849;DHT22;9050;48.746;9.232;2022-07-10T04:42:30;15.00;99.90
17849;DHT22;9050;48.746;9.232;2022-07-10T04:44:59;15.00;99.90
17849;DHT22;9050;48.746;9.232;2022-07-10T04:47:27;15.00;99.90
17849;DHT22;9050;48.746;9.232;2022-07-10T04:49:54;15.00;99.90
17849;DHT22;9050;48.746;9.232;2022-07-10T04:52:21;15.10;99.90
17849;DHT22;9050;48.746;9.232;2022-07-10T04:54:48;15.10;99.90
17849;DHT22;9050;48.746;9.232;2022-07-10T04:57:15;15.00;99.90
17849;DHT22;9050;48.746;9.232;2022-07-10T04:59:42;15.10;99.90
17849;DHT22;9050;48.746;9.232;2022-07-10T05:02:08;15.10;99.90
17849;DHT22;9050;48.746;9.232;2022-07-10T05:04:37;15.00;99.90
17849;DHT22;9050;48.746;9.232;2022-07-10T05:07:04;15.20;99.90
17849;DHT22;9050;48.746;9.232;2022-07-10T05:09:30;15.20;99.90
17849;DHT22;9050;48.746;9.232;2022-07-10T05:11:57;15.20;99.90
17849;DHT22;9050;48.746;9.232;2022-07-10T05:14:24;15.00;99.90
17849;DHT22;9050;48.746;9.232;2022-07-10T05:16:52;15.00;99.90
17849;DHT22;9050;48.746;9.232;2022-07-10T05:19:19;15.00;99.90
17849;DHT22;9050;48.746;9.232;2022-07-10T05:21:48;14.90;99.90
17849;DHT22;9050;48.746;9.232;2022-07-10T05:24:15;14.90;99.90
17849;DHT22;9050;48.746;9.232;2022-07-10T05:26:41;14.80;99.90
17849;DHT22;9050;48.746;9.232;2022-07-10T05:29:08;14.80;99.90
17849;DHT22;9050;48.746;9.232;2022-07-10T05:31:35;14.90;99.90
17849;DHT22;9050;48.746;9.232;2022-07-10T05:34:02;15.00;99.90
17849;DHT22;9050;48.746;9.232;2022-07-10T05:36:29;14.90;99.90
17849;DHT22;9050;48.746;9.232;2022-07-10T05:38:57;15.10;99.90
17849;DHT22;9050;48.746;9.232;2022-07-10T05:41:24;15.20;99.90
17849;DHT22;9050;48.746;9.232;2022-07-10T05:43:51;15.70;99.90
17849;DHT22;9050;48.746;9.232;2022-07-10T05:46:18;16.30;99.90
17849;DHT22;9050;48.746;9.232;2022-07-10T05:48:45;17.00;99.90
17849;DHT22;9050;48.746;9.232;2022-07-10T05:51:12;16.80;99.90
17849;DHT22;9050;48.746;9.232;2022-07-10T05:53:39;16.50;99.90
17849;DHT22;9050;48.746;9.232;2022-07-10T05:56:07;15.80;99.90
17849;DHT22;9050;48.746;9.232;2022-07-10T05:58:34;17.00;99.90
17849;DHT22;9050;48.746;9.232;2022-07-10T06:01:01;17.80;99.90
17849;DHT22;9050;48.746;9.232;2022-07-10T06:03:27;17.70;99.90
17849;DHT22;9050;48.746;9.232;2022-07-10T06:05:55;17.30;99.90
17849;DHT22;9050;48.746;9.232;2022-07-10T06:08:22;16.80;99.90
17849;DHT22;9050;48.746;9.232;2022-07-10T06:10:48;16.50;99.90
17849;DHT22;9050;48.746;9.232;2022-07-10T06:13:17;16.20;99.90
17849;DHT22;9050;48.746;9.232;2022-07-10T06:15:44;16.00;99.90
17849;DHT22;9050;48.746;9.232;2022-07-10T06:18:10;15.80;99.90
17849;DHT22;9050;48.746;9.232;2022-07-10T06:20:37;15.90;99.90
17849;DHT22;9050;48.746;9.232;2022-07-10T06:23:04;16.00;99.90
17849;DHT22;9050;48.746;9.232;2022-07-10T06:25:31;16.40;99.90
17849;DHT22;9050;48.746;9.232;2022-07-10T06:27:58;16.70;99.90
17849;DHT22;9050;48.746;9.232;2022-07-10T06:30:26;16.90;99.90
17849;DHT22;9050;48.746;9.232;2022-07-10T06:32:53;16.90;99.90
17849;DHT22;9050;48.746;9.232;2022-07-10T06:35:20;18.40;99.90
17849;DHT22;9050;48.746;9.232;2022-07-10T06:37:47;20.20;99.90
17849;DHT22;9050;48.746;9.232;2022-07-10T06:40:14;20.90;99.90
17849;DHT22;9050;48.746;9.232;2022-07-10T06:42:42;20.10;99.90
17849;DHT22;9050;48.746;9.232;2022-07-10T06:45:09;19.30;99.90
17849;DHT22;9050;48.746;9.232;2022-07-10T06:47:38;18.20;99.90
17849;DHT22;9050;48.746;9.232;2022-07-10T06:50:25;17.80;99.90
17849;DHT22;9050;48.746;9.232;2022-07-10T06:52:52;17.10;99.90
17849;DHT22;9050;48.746;9.232;2022-07-10T06:55:20;16.30;99.90
17849;DHT22;9050;48.746;9.232;2022-07-10T06:57:47;16.30;99.90
17849;DHT22;9050;48.746;9.232;2022-07-10T07:00:15;16.30;99.90
17849;DHT22;9050;48.746;9.232;2022-07-10T07:02:43;16.40;99.90
17849;DHT22;9050;48.746;9.232;2022-07-10T07:05:11;16.50;99.90
17849;DHT22;9050;48.746;9.232;2022-07-10T07:07:38;17.00;99.90
17849;DHT22;9050;48.746;9.232;2022-07-10T07:10:07;17.00;99.90
17849;DHT22;9050;48.746;9.232;2022-07-10T07:12:34;17.40;99.90
17849;DHT22;9050;48.746;9.232;2022-07-10T07:15:02;19.10;99.90
17849;DHT22;9050;48.746;9.232;2022-07-10T07:17:29;19.40;99.90
17849;DHT22;9050;48.746;9.232;2022-07-10T07:20:03;19.00;99.90
17849;DHT22;9050;48.746;9.232;2022-07-10T07:22:47;18.20;99.90
17849;DHT22;9050;48.746;9.232;2022-07-10T07:25:31;17.60;99.90
17849;DHT22;9050;48.746;9.232;2022-07-10T07:27:58;17.30;99.90
17849;DHT22;9050;48.746;9.232;2022-07-10T07:30:25;17.30;99.90
17849;DHT22;9050;48.746;9.232;2022-07-10T07:32:52;16.80;99.90
17849;DHT22;9050;48.746;9.232;2022-07-10T07:35:21;16.70;99.90
17849;DHT22;9050;48.746;9.232;2022-07-10T07:37:49;16.70;99.90
17849;DHT22;9050;48.746;9.232;2022-07-10T07:40:18;16.70;99.90
17849;DHT22;9050;48.746;9.232;2022-07-10T07:42:48;16.80;99.90
17849;DHT22;9050;48.746;9.232;2022-07-10T07:45:15;17.30;99.90
17849;DHT22;9050;48.746;9.232;2022-07-10T07:47:46;17.50;99.90
17849;DHT22;9050;48.746;9.232;2022-07-10T07:50:13;16.80;99.90
17849;DHT22;9050;48.746;9.232;2022-07-10T07:52:42;16.70;99.90
17849;DHT22;9050;48.746;9.232;2022-07-10T07:55:10;16.50;99.90
17849;DHT22;9050;48.746;9.232;2022-07-10T07:57:38;16.40;99.90
17849;DHT22;9050;48.746;9.232;2022-07-10T08:00:06;16.20;99.90
17849;DHT22;9050;48.746;9.232;2022-07-10T08:02:34;16.50;99.90
17849;DHT22;9050;48.746;9.232;2022-07-10T08:05:01;16.70;99.90
17849;DHT22;9050;48.746;9.232;2022-07-10T08:07:35;16.60;99.90
17849;DHT22;9050;48.746;9.232;2022-07-10T08:10:05;16.60;99.90
17849;DHT22;9050;48.746;9.232;2022-07-10T08:12:33;16.80;99.90
17849;DHT22;9050;48.746;9.232;2022-07-10T08:15:00;16.90;99.90
17849;DHT22;9050;48.746;9.232;2022-07-10T08:17:28;17.80;99.90
17849;DHT22;9050;48.746;9.232;2022-07-10T08:19:55;19.00;99.90
17849;DHT22;9050;48.746;9.232;2022-07-10T08:22:21;19.50;99.90
17849;DHT22;9050;48.746;9.232;2022-07-10T08:24:48;19.90;99.90
17849;DHT22;9050;48.746;9.232;2022-07-10T08:27:17;18.70;99.90
17849;DHT22;9050;48.746;9.232;2022-07-10T08:29:44;18.70;99.90
17849;DHT22;9050;48.746;9.232;2022-07-10T08:32:11;18.50;99.90
17849;DHT22;9050;48.746;9.232;2022-07-10T08:34:38;18.10;99.90
17849;DHT22;9050;48.746;9.232;2022-07-10T08:37:05;18.50;99.90
17849;DHT22;9050;48.746;9.232;2022-07-10T08:39:32;18.10;99.90
17849;DHT22;9050;48.746;9.232;2022-07-10T08:41:59;17.90;99.90
17849;DHT22;9050;48.746;9.232;2022-07-10T08:44:28;18.00;99.90
17849;DHT22;9050;48.746;9.232;2022-07-10T08:46:56;19.30;99.90
17849;DHT22;9050;48.746;9.232;2022-07-10T08:49:27;20.00;99.90
17849;DHT22;9050;48.746;9.232;2022-07-10T08:51:58;19.50;99.90
17849;DHT22;9050;48.746;9.232;2022-07-10T08:54:28;19.20;99.90
17849;DHT22;9050;48.746;9.232;2022-07-10T08:56:56;18.30;99.90
17849;DHT22;9050;48.746;9.232;2022-07-10T08:59:23;18.10;99.90
17849;DHT22;9050;48.746;9.232;2022-07-10T09:01:52;19.30;99.90
17849;DHT22;9050;48.746;9.232;2022-07-10T09:04:20;19.50;99.90
17849;DHT22;9050;48.746;9.232;2022-07-10T09:06:48;18.60;99.90
17849;DHT22;9050;48.746;9.232;2022-07-10T09:09:15;18.40;99.90
17849;DHT22;9050;48.746;9.232;2022-07-10T09:11:42;18.70;99.90
17849;DHT22;9050;48.746;9.232;2022-07-10T09:14:10;18.90;99.90
17849;DHT22;9050;48.746;9.232;2022-07-10T09:16:39;18.50;99.90
17849;DHT22;9050;48.746;9.232;2022-07-10T09:19:18;18.10;99.90
17849;DHT22;9050;48.746;9.232;2022-07-10T09:21:47;18.00;99.90
17849;DHT22;9050;48.746;9.232;2022-07-10T09:24:14;18.00;99.90
17849;DHT22;9050;48.746;9.232;2022-07-10T09:26:57;18.00;99.90
17849;DHT22;9050;48.746;9.232;2022-07-10T09:29:25;17.80;99.90
17849;DHT22;9050;48.746;9.232;2022-07-10T09:31:52;17.80;99.90
17849;DHT22;9050;48.746;9.232;2022-07-10T09:34:36;18.10;99.90
17849;DHT22;9050;48.746;9.232;2022-07-10T09:37:21;18.20;99.90
17849;DHT22;9050;48.746;9.232;2022-07-10T09:39:56;18.40;99.90
17849;DHT22;9050;48.746;9.232;2022-07-10T09:42:27;18.00;99.90
17849;DHT22;9050;48.746;9.232;2022-07-10T09:45:18;18.10;99.90
17849;DHT22;9050;48.746;9.232;2022-07-10T09:47:54;18.30;99.90
17849;DHT22;9050;48.746;9.232;2022-07-10T09:50:25;18.40;99.90
17849;DHT22;9050;48.746;9.232;2022-07-10T09:52:54;18.50;99.90
17849;DHT22;9050;48.746;9.232;2022-07-10T09:55:24;18.40;99.90
17849;DHT22;9050;48.746;9.232;2022-07-10T09:57:54;17.80;99.90
17849;DHT22;9050;48.746;9.232;2022-07-10T10:00:26;18.00;99.90
17849;DHT22;9050;48.746;9.232;2022-07-10T10:02:56;17.90;99.90
17849;DHT22;9050;48.746;9.232;2022-07-10T10:05:37;18.00;99.90
17849;DHT22;9050;48.746;9.232;2022-07-10T10:08:11;18.20;99.90
17849;DHT22;9050;48.746;9.232;2022-07-10T10:10:43;18.50;99.90
17849;DHT22;9050;48.746;9.232;2022-07-10T10:13:11;18.50;99.90
17849;DHT22;9050;48.746;9.232;2022-07-10T10:15:43;18.50;99.90
17849;DHT22;9050;48.746;9.232;2022-07-10T10:18:10;18.30;99.90
17849;DHT22;9050;48.746;9.232;2022-07-10T10:20:40;18.50;99.90
17849;DHT22;9050;48.746;9.232;2022-07-10T10:23:10;18.40;99.90
17849;DHT22;9050;48.746;9.232;2022-07-10T10:25:38;18.00;99.90
17849;DHT22;9050;48.746;9.232;2022-07-10T10:28:08;18.00;99.90
17849;DHT22;9050;48.746;9.232;2022-07-10T10:30:37;18.30;99.90
17849;DHT22;9050;48.746;9.232;2022-07-10T10:33:44;18.50;99.90
17849;DHT22;9050;48.746;9.232;2022-07-10T10:36:15;18.40;99.90
17849;DHT22;9050;48.746;9.232;2022-07-10T10:39:04;18.70;99.90
17849;DHT22;9050;48.746;9.232;2022-07-10T10:41:40;18.90;99.90
17849;DHT22;9050;48.746;9.232;2022-07-10T10:47:00;18.70;99.90
17849;DHT22;9050;48.746;9.232;2022-07-10T10:49:52;18.90;99.90
17849;DHT22;9050;48.746;9.232;2022-07-10T10:52:21;19.00;99.90
17849;DHT22;9050;48.746;9.232;2022-07-10T10:55:07;19.40;99.90
17849;DHT22;9050;48.746;9.232;2022-07-10T10:57:41;19.40;99.90
17849;DHT22;9050;48.746;9.232;2022-07-10T11:00:40;19.50;99.90
17849;DHT22;9050;48.746;9.232;2022-07-10T11:03:21;19.60;99.90
17849;DHT22;9050;48.746;9.232;2022-07-10T11:05:50;19.20;99.90
17849;DHT22;9050;48.746;9.232;2022-07-10T11:08:44;19.00;99.90
17849;DHT22;9050;48.746;9.232;2022-07-10T11:11:37;18.90;99.90
17849;DHT22;9050;48.746;9.232;2022-07-10T11:14:06;18.80;99.90
17849;DHT22;9050;48.746;9.232;2022-07-10T11:16:34;19.30;99.90
17849;DHT22;9050;48.746;9.232;2022-07-10T11:19:01;19.30;99.90
17849;DHT22;9050;48.746;9.232;2022-07-10T11:21:43;19.30;99.90
17849;DHT22;9050;48.746;9.232;2022-07-10T11:24:29;19.20;99.90
17849;DHT22;9050;48.746;9.232;2022-07-10T11:27:08;18.90;99.90
17849;DHT22;9050;48.746;9.232;2022-07-10T11:29:36;19.00;99.90
17849;DHT22;9050;48.746;9.232;2022-07-10T11:32:05;19.10;99.90
17849;DHT22;9050;48.746;9.232;2022-07-10T11:34:36;19.30;99.90
17849;DHT22;9050;48.746;9.232;2022-07-10T11:37:03;19.40;99.90
17849;DHT22;9050;48.746;9.232;2022-07-10T11:39:41;19.60;99.90
17849;DHT22;9050;48.746;9.232;2022-07-10T11:42:08;19.30;99.90
17849;DHT22;9050;48.746;9.232;2022-07-10T11:44:35;19.30;99.90
17849;DHT22;9050;48.746;9.232;2022-07-10T11:47:04;19.50;99.90
17849;DHT22;9050;48.746;9.232;2022-07-10T11:49:33;19.60;99.90
17849;DHT22;9050;48.746;9.232;2022-07-10T11:52:04;19.20;99.90
17849;DHT22;9050;48.746;9.232;2022-07-10T11:54:31;19.20;99.90
17849;DHT22;9050;48.746;9.232;2022-07-10T11:57:06;19.30;99.90
17849;DHT22;9050;48.746;9.232;2022-07-10T11:59:34;19.40;99.90
17849;DHT22;9050;48.746;9.232;2022-07-10T12:02:00;19.10;99.90
17849;DHT22;9050;48.746;9.232;2022-07-10T12:04:29;19.30;99.90
17849;DHT22;9050;48.746;9.232;2022-07-10T12:06:56;19.20;99.90
17849;DHT22;9050;48.746;9.232;2022-07-10T12:09:24;19.40;99.90
17849;DHT22;9050;48.746;9.232;2022-07-10T12:11:59;19.60;99.90
17849;DHT22;9050;48.746;9.232;2022-07-10T12:14:27;20.10;99.90
17849;DHT22;9050;48.746;9.232;2022-07-10T12:16:55;20.10;99.90
17849;DHT22;9050;48.746;9.232;2022-07-10T12:19:24;19.50;99.90
17849;DHT22;9050;48.746;9.232;2022-07-10T12:21:53;19.20;99.90
17849;DHT22;9050;48.746;9.232;2022-07-10T12:24:20;18.90;99.90
17849;DHT22;9050;48.746;9.232;2022-07-10T12:26:49;19.30;99.90
17849;DHT22;9050;48.746;9.232;2022-07-10T12:29:23;19.30;99.90
17849;DHT22;9050;48.746;9.232;2022-07-10T12:31:53;19.40;99.90
17849;DHT22;9050;48.746;9.232;2022-07-10T12:34:32;19.40;99.90
17849;DHT22;9050;48.746;9.232;2022-07-10T12:37:06;19.50;99.90
17849;DHT22;9050;48.746;9.232;2022-07-10T12:39:36;20.10;99.90
17849;DHT22;9050;48.746;9.232;2022-07-10T12:42:06;20.00;99.90
17849;DHT22;9050;48.746;9.232;2022-07-10T12:44:37;19.80;99.90
17849;DHT22;9050;48.746;9.232;2022-07-10T12:47:05;19.50;99.90
17849;DHT22;9050;48.746;9.232;2022-07-10T12:49:54;19.40;99.90
17849;DHT22;9050;48.746;9.232;2022-07-10T12:52:26;18.90;99.90
17849;DHT22;9050;48.746;9.232;2022-07-10T12:55:09;19.10;99.90
17849;DHT22;9050;48.746;9.232;2022-07-10T12:57:46;19.00;99.90
17849;DHT22;9050;48.746;9.232;2022-07-10T13:00:17;19.00;99.90
17849;DHT22;9050;48.746;9.232;2022-07-10T13:02:46;19.10;99.90
17849;DHT22;9050;48.746;9.232;2022-07-10T13:05:28;19.40;99.90
17849;DHT22;9050;48.746;9.232;2022-07-10T13:08:05;19.60;99.90
17849;DHT22;9050;48.746;9.232;2022-07-10T13:10:35;19.60;99.90
17849;DHT22;9050;48.746;9.232;2022-07-10T13:13:02;19.70;99.90
17849;DHT22;9050;48.746;9.232;2022-07-10T13:15:31;19.60;99.90
17849;DHT22;9050;48.746;9.232;2022-07-10T13:18:00;19.50;99.90
17849;DHT22;9050;48.746;9.232;2022-07-10T13:20:27;19.60;99.90
17849;DHT22;9050;48.746;9.232;2022-07-10T13:22:53;19.70;99.90
17849;DHT22;9050;48.746;9.232;2022-07-10T13:25:20;19.70;99.90
17849;DHT22;9050;48.746;9.232;2022-07-10T13:27:47;19.80;99.90
17849;DHT22;9050;48.746;9.232;2022-07-10T13:30:16;19.80;99.90
17849;DHT22;9050;48.746;9.232;2022-07-10T13:32:44;19.60;99.90
17849;DHT22;9050;48.746;9.232;2022-07-10T13:35:11;19.40;99.90
17849;DHT22;9050;48.746;9.232;2022-07-10T13:37:38;19.30;99.90
17849;DHT22;9050;48.746;9.232;2022-07-10T13:40:07;19.40;99.90
17849;DHT22;9050;48.746;9.232;2022-07-10T13:42:33;19.50;99.90
17849;DHT22;9050;48.746;9.232;2022-07-10T13:45:01;19.80;99.90
17849;DHT22;9050;48.746;9.232;2022-07-10T13:47:27;19.90;99.90
17849;DHT22;9050;48.746;9.232;2022-07-10T13:49:56;19.90;99.90
17849;DHT22;9050;48.746;9.232;2022-07-10T13:52:22;19.70;99.90
17849;DHT22;9050;48.746;9.232;2022-07-10T13:54:49;19.80;99.90
17849;DHT22;9050;48.746;9.232;2022-07-10T13:57:16;19.70;99.90
17849;DHT22;9050;48.746;9.232;2022-07-10T13:59:43;19.70;99.90
17849;DHT22;9050;48.746;9.232;2022-07-10T14:02:11;19.90;99.90
17849;DHT22;9050;48.746;9.232;2022-07-10T14:04:38;19.70;99.90
17849;DHT22;9050;48.746;9.232;2022-07-10T14:07:08;19.50;99.90
17849;DHT22;9050;48.746;9.232;2022-07-10T14:09:35;19.60;99.90
17849;DHT22;9050;48.746;9.232;2022-07-10T14:12:02;19.80;99.90
17849;DHT22;9050;48.746;9.232;2022-07-10T14:14:29;20.00;99.90
17849;DHT22;9050;48.746;9.232;2022-07-10T14:16:56;19.90;99.90
17849;DHT22;9050;48.746;9.232;2022-07-10T14:19:23;20.00;99.90
17849;DHT22;9050;48.746;9.232;2022-07-10T14:21:50;20.40;99.90
17849;DHT22;9050;48.746;9.232;2022-07-10T14:24:18;20.90;99.90
17849;DHT22;9050;48.746;9.232;2022-07-10T14:26:45;20.60;99.90
17849;DHT22;9050;48.746;9.232;2022-07-10T14:29:12;20.30;99.90
17849;DHT22;9050;48.746;9.232;2022-07-10T14:31:39;20.50;99.90
17849;DHT22;9050;48.746;9.232;2022-07-10T14:34:06;20.20;99.90
17849;DHT22;9050;48.746;9.232;2022-07-10T14:36:33;19.80;99.90
17849;DHT22;9050;48.746;9.232;2022-07-10T14:39:00;19.80;99.90
17849;DHT22;9050;48.746;9.232;2022-07-10T14:41:29;19.80;99.90
17849;DHT22;9050;48.746;9.232;2022-07-10T14:43:56;19.80;99.90
17849;DHT22;9050;48.746;9.232;2022-07-10T14:46:23;19.70;99.90
17849;DHT22;9050;48.746;9.232;2022-07-10T14:48:50;19.60;99.90
17849;DHT22;9050;48.746;9.232;2022-07-10T14:51:17;19.80;99.90
17849;DHT22;9050;48.746;9.232;2022-07-10T14:53:44;19.80;99.90
17849;DHT22;9050;48.746;9.232;2022-07-10T14:56:13;20.10;99.90
17849;DHT22;9050;48.746;9.232;2022-07-10T14:58:43;19.90;99.90
17849;DHT22;9050;48.746;9.232;2022-07-10T15:01:10;19.70;99.90
17849;DHT22;9050;48.746;9.232;2022-07-10T15:03:37;19.40;99.90
17849;DHT22;9050;48.746;9.232;2022-07-10T15:06:04;19.40;99.90
17849;DHT22;9050;48.746;9.232;2022-07-10T15:08:31;19.40;99.90
17849;DHT22;9050;48.746;9.232;2022-07-10T15:10:58;19.50;99.90
17849;DHT22;9050;48.746;9.232;2022-07-10T15:13:25;19.50;99.90
17849;DHT22;9050;48.746;9.232;2022-07-10T15:15:53;19.50;99.90
17849;DHT22;9050;48.746;9.232;2022-07-10T15:18:21;19.50;99.90
17849;DHT22;9050;48.746;9.232;2022-07-10T15:20:48;19.50;99.90
17849;DHT22;9050;48.746;9.232;2022-07-10T15:23:15;19.40;99.90
17849;DHT22;9050;48.746;9.232;2022-07-10T15:25:42;19.20;99.90
17849;DHT22;9050;48.746;9.232;2022-07-10T15:28:09;19.20;99.90
17849;DHT22;9050;48.746;9.232;2022-07-10T15:30:37;19.30;99.90
17849;DHT22;9050;48.746;9.232;2022-07-10T15:33:06;19.50;99.90
17849;DHT22;9050;48.746;9.232;2022-07-10T15:35:33;19.60;99.90
17849;DHT22;9050;48.746;9.232;2022-07-10T15:38:00;19.80;99.90
17849;DHT22;9050;48.746;9.232;2022-07-10T15:40:28;19.70;99.90
17849;DHT22;9050;48.746;9.232;2022-07-10T15:42:55;19.50;99.90
17849;DHT22;9050;48.746;9.232;2022-07-10T15:45:22;19.40;99.90
17849;DHT22;9050;48.746;9.232;2022-07-10T15:47:49;19.60;99.90
17849;DHT22;9050;48.746;9.232;2022-07-10T15:50:18;19.70;99.90
17849;DHT22;9050;48.746;9.232;2022-07-10T15:52:45;19.40;99.90
17849;DHT22;9050;48.746;9.232;2022-07-10T15:55:12;19.40;99.90
17849;DHT22;9050;48.746;9.232;2022-07-10T15:57:39;19.40;99.90
17849;DHT22;9050;48.746;9.232;2022-07-10T16:00:07;19.50;99.90